< < Back
Terminal Aerodrome Forecast


Current Version              Previous Versions:   1  2  3  4  5  6  7  8  9  

Terminal Aerodrome Forecast

104
FTUS42 KILM 230520
TAFFLO
TAF
KFLO 230520Z 2306/2406 06006KT P6SM FEW250=

Latest METAR

184
SAUS70 KWBC 240200 RRA
MTRFLO
METAR KFLO 240153Z 14003KT 10SM CLR 25/19 A3025 RMK AO2 SLP241
T02500194


USA.gov is the U.S. government's official web portal to all federal, state and local government web resources and services.